createdAt,value
2024-05-09T00:01:12.595Z,17.75
2024-05-09T00:03:44.594Z,17.77
2024-05-09T00:06:17.823Z,17.20
2024-05-09T00:08:48.144Z,17.05
2024-05-09T00:11:20.604Z,17.80
2024-05-09T00:13:51.119Z,17.53
2024-05-09T00:16:21.387Z,17.73
2024-05-09T00:18:51.689Z,17.80
2024-05-09T00:21:24.777Z,18.60
2024-05-09T00:23:55.045Z,18.47
2024-05-09T00:26:25.477Z,18.80
2024-05-09T00:28:55.896Z,19.90
2024-05-09T00:31:28.532Z,19.30
2024-05-09T00:33:58.970Z,19.75
2024-05-09T00:36:32.245Z,19.53
2024-05-09T00:39:02.747Z,19.35
2024-05-09T00:41:36.110Z,18.48
2024-05-09T00:44:06.471Z,18.20
2024-05-09T00:46:36.892Z,18.95
2024-05-09T00:49:07.212Z,17.95
2024-05-09T00:51:42.145Z,18.77
2024-05-09T00:54:12.418Z,18.45
2024-05-09T00:56:43.267Z,17.98
2024-05-09T00:59:13.748Z,17.97
2024-05-09T01:01:44.372Z,18.10
2024-05-09T01:04:15.019Z,19.40
2024-05-09T01:06:47.936Z,18.43
2024-05-09T01:09:18.282Z,18.85
2024-05-09T01:11:48.886Z,18.58
2024-05-09T01:14:19.456Z,17.35
2024-05-09T01:16:50.138Z,17.63
2024-05-09T01:19:32.842Z,18.23
2024-05-09T01:22:08.021Z,18.45
2024-05-09T01:24:41.095Z,18.23
2024-05-09T01:27:11.521Z,18.75
2024-05-09T01:29:41.775Z,18.70
2024-05-09T01:32:12.082Z,17.88
2024-05-09T01:34:42.570Z,17.67
2024-05-09T01:37:13.055Z,18.38
2024-05-09T01:39:46.185Z,16.93
2024-05-09T01:42:16.741Z,18.58
2024-05-09T01:44:47.048Z,18.20
2024-05-09T01:47:17.601Z,18.80
2024-05-09T01:49:48.137Z,18.88
2024-05-09T01:52:18.639Z,18.75
2024-05-09T01:54:51.722Z,18.10
2024-05-09T01:57:22.050Z,18.30
2024-05-09T01:59:52.407Z,19.23
2024-05-09T02:02:22.924Z,18.38
2024-05-09T02:04:53.303Z,18.05
2024-05-09T02:07:23.683Z,18.38
2024-05-09T02:09:57.692Z,19.15
2024-05-09T02:12:28.035Z,19.48
2024-05-09T02:14:58.728Z,19.25
2024-05-09T02:17:29.492Z,19.10
2024-05-09T02:19:59.975Z,19.35
2024-05-09T02:22:30.333Z,19.65
2024-05-09T02:25:03.758Z,20.27
2024-05-09T02:27:34.227Z,19.10
2024-05-09T02:30:09.905Z,19.85
2024-05-09T02:32:45.911Z,20.00
2024-05-09T02:35:16.703Z,19.63
2024-05-09T02:37:44.386Z,17.90
2024-05-09T02:40:25.216Z,18.23
2024-05-09T02:42:56.681Z,17.60
2024-05-09T02:45:27.692Z,17.48
2024-05-09T02:47:55.510Z,18.40
2024-05-09T02:50:33.903Z,18.27
2024-05-09T02:53:06.541Z,18.27
2024-05-09T02:55:39.435Z,19.33
2024-05-09T02:58:08.353Z,17.90
2024-05-09T03:00:41.534Z,18.00
2024-05-09T03:03:12.809Z,17.80
2024-05-09T03:05:45.836Z,17.05
2024-05-09T03:08:14.139Z,16.90
2024-05-09T03:10:47.449Z,16.92
2024-05-09T03:13:16.260Z,17.42
2024-05-09T03:15:47.138Z,16.80
2024-05-09T03:18:16.139Z,17.85
2024-05-09T03:20:46.747Z,17.17
2024-05-09T03:23:14.598Z,17.45
2024-05-09T03:25:47.837Z,18.25
2024-05-09T03:28:15.532Z,18.23
2024-05-09T03:30:45.845Z,18.17
2024-05-09T03:33:15.626Z,17.42
2024-05-09T03:35:47.213Z,17.47
2024-05-09T03:38:18.260Z,17.80
2024-05-09T03:40:50.007Z,18.35
2024-05-09T03:43:21.750Z,18.38
2024-05-09T03:45:53.296Z,17.40
2024-05-09T03:48:21.515Z,17.53
2024-05-09T03:50:51.963Z,17.27
2024-05-09T03:53:19.760Z,16.23
2024-05-09T03:55:52.882Z,16.63
2024-05-09T03:58:20.808Z,16.88
2024-05-09T04:00:51.252Z,16.92
2024-05-09T04:03:19.247Z,16.65
2024-05-09T04:05:49.760Z,16.95
2024-05-09T04:08:17.398Z,16.98
2024-05-09T04:10:47.876Z,17.77
2024-05-09T04:13:18.330Z,16.85
2024-05-09T04:15:48.686Z,17.65
2024-05-09T04:18:17.807Z,17.33
2024-05-09T04:20:48.219Z,16.63
2024-05-09T04:23:15.975Z,17.15
2024-05-09T04:25:47.083Z,18.83
2024-05-09T04:28:15.088Z,18.65
2024-05-09T04:30:48.231Z,18.20
2024-05-09T04:33:20.232Z,18.23
2024-05-09T04:35:49.636Z,17.70
2024-05-09T04:38:20.301Z,16.90
2024-05-09T04:40:48.281Z,17.08
2024-05-09T04:43:20.688Z,17.63
2024-05-09T04:45:51.598Z,17.33
2024-05-09T04:48:22.225Z,17.17
2024-05-09T04:50:50.236Z,17.33
2024-05-09T04:53:20.821Z,17.00
2024-05-09T04:55:48.966Z,16.85
2024-05-09T04:58:19.383Z,17.00
2024-05-09T05:00:47.148Z,17.83
2024-05-09T05:03:20.690Z,17.63
2024-05-09T05:05:48.752Z,17.15
2024-05-09T05:08:19.907Z,18.02
2024-05-09T05:10:49.121Z,17.85
2024-05-09T05:13:21.594Z,18.80
2024-05-09T05:15:51.113Z,19.08
2024-05-09T05:18:24.910Z,19.55
2024-05-09T05:20:53.057Z,19.38
2024-05-09T05:23:24.455Z,21.17
2024-05-09T05:25:53.911Z,20.33
2024-05-09T05:28:24.899Z,20.97
2024-05-09T05:30:52.591Z,21.17
2024-05-09T05:33:27.997Z,21.83
2024-05-09T05:35:57.493Z,22.33
2024-05-09T05:38:28.612Z,21.50
2024-05-09T05:40:56.750Z,22.02
2024-05-09T05:43:27.314Z,23.15
2024-05-09T05:45:54.978Z,21.20
2024-05-09T05:48:28.139Z,22.52
2024-05-09T05:50:56.073Z,23.37
2024-05-09T05:53:26.554Z,22.17
2024-05-09T05:55:54.556Z,21.77
2024-05-09T05:58:24.979Z,22.52
2024-05-09T06:00:53.878Z,23.63
2024-05-09T06:03:24.200Z,24.60
2024-05-09T06:05:54.450Z,24.67
2024-05-09T06:08:27.055Z,27.63
2024-05-09T06:10:57.811Z,28.85
2024-05-09T06:13:28.513Z,24.00
2024-05-09T06:15:56.326Z,23.37
2024-05-09T06:18:26.982Z,23.10
2024-05-09T06:20:57.427Z,24.65
2024-05-09T06:23:27.831Z,24.15
2024-05-09T06:25:55.593Z,23.98
2024-05-09T06:28:25.998Z,25.07
2024-05-09T06:30:53.689Z,25.52
2024-05-09T06:33:24.510Z,24.77
2024-05-09T06:35:54.521Z,24.83
2024-05-09T06:38:27.694Z,23.87
2024-05-09T06:40:55.681Z,25.97
2024-05-09T06:43:26.406Z,25.42
2024-05-09T06:45:54.275Z,23.08
2024-05-09T06:48:24.963Z,24.23
2024-05-09T06:50:52.931Z,23.90
2024-05-09T06:53:27.899Z,24.00
2024-05-09T06:55:55.787Z,23.95
2024-05-09T06:58:26.029Z,21.67
2024-05-09T07:00:53.753Z,21.55
2024-05-09T07:03:24.327Z,21.63
2024-05-09T07:05:52.095Z,20.77
2024-05-09T07:08:22.561Z,17.95
2024-05-09T07:10:53.134Z,17.90
2024-05-09T07:13:23.721Z,17.95
2024-05-09T07:15:51.400Z,16.55
2024-05-09T07:18:22.216Z,14.57
2024-05-09T07:20:50.742Z,13.48
2024-05-09T07:23:21.708Z,15.93
2024-05-09T07:25:52.028Z,14.43
2024-05-09T07:28:25.209Z,13.38
2024-05-09T07:30:54.437Z,14.20
2024-05-09T07:33:25.398Z,13.73
2024-05-09T07:35:53.322Z,13.10
2024-05-09T07:38:24.638Z,13.13
2024-05-09T07:40:55.014Z,13.40
2024-05-09T07:43:25.283Z,14.38
2024-05-09T07:45:55.211Z,13.43
2024-05-09T07:50:00.725Z,12.10
2024-05-09T07:53:55.960Z,11.27
2024-05-09T07:56:29.096Z,11.75
2024-05-09T07:58:59.716Z,11.65
2024-05-09T08:01:27.622Z,11.10
2024-05-09T08:03:58.452Z,11.20
2024-05-09T08:06:27.049Z,12.02
2024-05-09T08:09:05.107Z,12.30
2024-05-09T08:11:38.344Z,11.87
2024-05-09T08:14:08.885Z,12.85
2024-05-09T08:16:36.446Z,11.98
2024-05-09T08:19:06.872Z,11.32
2024-05-09T08:21:34.541Z,11.60
2024-05-09T08:24:04.798Z,12.02
2024-05-09T08:26:32.475Z,11.95
2024-05-09T08:29:05.671Z,11.57
2024-05-09T08:31:38.457Z,11.43
2024-05-09T08:34:08.956Z,11.95
2024-05-09T08:36:36.784Z,11.30
2024-05-09T08:39:07.237Z,11.30
2024-05-09T08:41:35.535Z,10.45
2024-05-09T08:44:08.526Z,10.60
2024-05-09T08:46:36.336Z,10.77
2024-05-09T08:49:07.117Z,10.20
2024-05-09T08:51:35.204Z,9.75
2024-05-09T08:54:05.731Z,10.07
2024-05-09T08:56:35.483Z,8.68
2024-05-09T08:59:11.406Z,8.27
2024-05-09T09:01:41.231Z,7.70
2024-05-09T09:04:13.729Z,7.93
2024-05-09T09:06:41.684Z,7.47
2024-05-09T09:09:13.741Z,6.35
2024-05-09T09:11:41.404Z,5.85
2024-05-09T09:14:14.469Z,6.27
2024-05-09T09:16:42.102Z,6.35
2024-05-09T09:19:14.833Z,5.82
2024-05-09T09:21:42.800Z,7.25
2024-05-09T09:24:13.270Z,7.68
2024-05-09T09:26:40.946Z,8.40
2024-05-09T09:29:14.176Z,8.52
2024-05-09T09:31:42.230Z,7.80
2024-05-09T09:34:13.179Z,7.85
2024-05-09T09:36:43.342Z,8.13
2024-05-09T09:39:13.543Z,7.82
2024-05-09T09:41:41.940Z,8.40
2024-05-09T09:44:15.167Z,8.35
2024-05-09T09:46:42.813Z,8.30
2024-05-09T09:49:13.617Z,8.52
2024-05-09T09:51:43.891Z,7.67
2024-05-09T09:54:15.178Z,8.48
2024-05-09T09:56:45.428Z,8.80
2024-05-09T09:59:19.461Z,9.20
2024-05-09T10:01:47.380Z,8.30
2024-05-09T10:04:19.563Z,9.20
2024-05-09T10:06:51.331Z,8.93
2024-05-09T10:09:21.858Z,9.55
2024-05-09T10:11:52.329Z,9.18
2024-05-09T10:14:31.065Z,8.85
2024-05-09T10:17:05.561Z,8.90
2024-05-09T10:19:36.183Z,9.20
2024-05-09T10:22:06.131Z,8.98
2024-05-09T10:24:50.870Z,8.77
2024-05-09T10:27:27.168Z,8.82
2024-05-09T10:30:01.123Z,9.70
2024-05-09T10:32:29.736Z,10.13
2024-05-09T10:35:03.762Z,8.80
2024-05-09T10:37:32.482Z,8.70
2024-05-09T10:40:07.218Z,7.72
2024-05-09T10:42:41.862Z,7.15
2024-05-09T10:45:15.044Z,7.60
2024-05-09T10:47:42.831Z,7.82
2024-05-09T10:50:22.214Z,7.80
2024-05-09T10:52:55.906Z,7.50
2024-05-09T10:55:26.211Z,7.40
2024-05-09T11:28:55.810Z,8.20
2024-05-09T11:31:23.771Z,7.85
2024-05-09T11:33:58.502Z,7.80
2024-05-09T11:36:26.203Z,7.47
2024-05-09T11:38:56.484Z,8.90
2024-05-09T11:41:26.460Z,7.72
2024-05-09T11:43:59.384Z,6.93
2024-05-09T11:46:27.960Z,6.57
2024-05-09T11:48:58.428Z,6.32
2024-05-09T11:51:26.241Z,6.90
2024-05-09T11:53:57.422Z,6.70
2024-05-09T11:56:25.182Z,7.30
2024-05-09T11:58:56.038Z,7.22
2024-05-09T12:01:29.154Z,6.80
2024-05-09T12:04:00.018Z,7.00
2024-05-09T12:06:28.205Z,6.70
2024-05-09T12:08:58.772Z,6.80
2024-05-09T12:11:26.414Z,6.85
2024-05-09T12:13:56.895Z,6.83
2024-05-09T12:16:24.871Z,7.03
2024-05-09T12:18:58.170Z,6.50
2024-05-09T12:21:26.106Z,6.18
2024-05-09T12:23:56.692Z,6.60
2024-05-09T12:26:24.507Z,6.45
2024-05-09T12:28:54.953Z,6.50
2024-05-09T12:31:22.779Z,5.97
2024-05-09T12:33:54.735Z,6.65
2024-05-09T12:36:25.289Z,6.18
2024-05-09T12:38:55.608Z,5.88
2024-05-09T12:41:23.392Z,5.30
2024-05-09T12:43:53.944Z,5.67
2024-05-09T12:46:22.646Z,5.30
2024-05-09T12:48:53.706Z,5.55
2024-05-09T12:51:24.434Z,5.10
2024-05-09T12:53:54.769Z,4.57
2024-05-09T12:56:22.672Z,5.80
2024-05-09T12:58:52.987Z,5.93
2024-05-09T13:01:20.818Z,5.53
2024-05-09T13:03:51.452Z,4.72
2024-05-09T13:06:19.311Z,4.90
2024-05-09T13:08:52.447Z,4.60
2024-05-09T13:11:20.395Z,4.75
2024-05-09T13:13:50.956Z,4.88
2024-05-09T13:16:18.957Z,4.13
2024-05-09T13:18:49.594Z,4.78
2024-05-09T13:21:17.394Z,4.63
2024-05-09T13:23:47.845Z,5.82
2024-05-09T13:26:18.504Z,5.32
2024-05-09T13:28:48.786Z,4.65
2024-05-09T13:31:17.039Z,4.78
2024-05-09T13:33:47.725Z,4.38
2024-05-09T13:36:15.584Z,4.10
2024-05-09T13:38:45.967Z,5.38
2024-05-09T13:41:13.987Z,5.28
2024-05-09T13:43:47.043Z,5.45
2024-05-09T13:46:15.305Z,4.38
2024-05-09T13:48:45.790Z,5.57
2024-05-09T13:51:13.648Z,4.37
2024-05-09T13:53:44.042Z,4.00
2024-05-09T13:56:12.978Z,3.85
2024-05-09T13:58:44.025Z,4.30
2024-05-09T14:01:14.532Z,7.70
2024-05-09T14:03:45.168Z,5.13
2024-05-09T14:06:13.330Z,7.45
2024-05-09T14:08:43.858Z,4.97
2024-05-09T14:11:11.767Z,7.18
2024-05-09T14:13:42.203Z,3.60
2024-05-09T14:16:10.157Z,5.00
2024-05-09T14:18:43.564Z,5.30
2024-05-09T14:21:11.408Z,4.70
2024-05-09T14:23:41.789Z,4.80
2024-05-09T14:26:09.857Z,4.85
2024-05-09T14:28:40.062Z,5.00
2024-05-09T14:31:07.739Z,4.50
2024-05-09T14:33:38.558Z,4.30
2024-05-09T14:36:09.436Z,6.75
2024-05-09T14:38:39.937Z,4.27
2024-05-09T14:41:09.474Z,4.95
2024-05-09T14:43:39.757Z,4.72
2024-05-09T14:46:07.579Z,6.80
2024-05-09T14:48:38.190Z,8.88
2024-05-09T14:51:08.783Z,6.10
2024-05-09T14:53:39.151Z,6.53
2024-05-09T14:56:07.529Z,5.25
2024-05-09T14:58:38.198Z,5.03
2024-05-09T15:01:06.375Z,5.13
2024-05-09T15:03:36.930Z,4.00
2024-05-09T15:06:05.573Z,4.45
2024-05-09T15:08:38.895Z,4.70
2024-05-09T15:11:06.763Z,5.00
2024-05-09T15:13:37.370Z,4.70
2024-05-09T15:16:05.775Z,4.93
2024-05-09T15:18:36.208Z,5.43
2024-05-09T15:21:04.045Z,5.60
2024-05-09T15:23:34.469Z,5.35
2024-05-09T15:26:05.499Z,5.72
2024-05-09T15:28:35.818Z,5.43
2024-05-09T15:31:03.432Z,5.20
2024-05-09T15:33:33.983Z,5.60
2024-05-09T15:36:02.052Z,4.40
2024-05-09T15:38:32.651Z,5.20
2024-05-09T15:41:00.462Z,6.22
2024-05-09T15:43:33.732Z,7.55
2024-05-09T15:46:01.572Z,8.05
2024-05-09T15:48:32.221Z,8.40
2024-05-09T15:51:00.052Z,8.00
2024-05-09T15:53:30.483Z,8.30
2024-05-09T15:55:58.205Z,8.40
2024-05-09T15:58:28.858Z,8.32
2024-05-09T16:00:59.930Z,8.50
2024-05-09T16:03:30.620Z,8.75
2024-05-09T16:05:58.881Z,8.70
2024-05-09T16:08:29.386Z,8.18
2024-05-09T16:10:57.115Z,8.45
2024-05-09T16:13:27.767Z,8.27
2024-05-09T16:15:55.770Z,8.38
2024-05-09T16:18:28.830Z,8.55
2024-05-09T16:21:00.366Z,8.70
2024-05-09T16:23:32.776Z,8.52
2024-05-09T16:26:00.616Z,8.52
2024-05-09T16:28:31.150Z,9.02
2024-05-09T16:31:00.027Z,9.20
2024-05-09T16:33:33.611Z,9.20
2024-05-09T16:36:01.340Z,9.30
2024-05-09T16:38:31.690Z,9.73
2024-05-09T16:41:00.350Z,9.30
2024-05-09T16:43:30.738Z,9.45
2024-05-09T16:45:58.723Z,10.13
2024-05-09T16:48:29.109Z,10.40
2024-05-09T16:50:59.470Z,9.63
2024-05-09T16:53:29.945Z,9.85
2024-05-09T16:55:57.684Z,10.02
2024-05-09T16:58:28.457Z,10.10
2024-05-09T17:00:56.342Z,10.15
2024-05-09T17:07:22.028Z,10.30
2024-05-09T17:09:49.973Z,10.10
2024-05-09T17:12:20.302Z,9.45
2024-05-09T17:14:50.672Z,9.20
2024-05-09T17:17:21.366Z,9.60
2024-05-09T17:19:52.184Z,9.82
2024-05-09T17:22:22.651Z,9.63
2024-05-09T17:24:53.258Z,10.43
2024-05-09T17:27:21.127Z,9.60
2024-05-09T17:29:51.912Z,10.25
2024-05-09T17:32:37.442Z,10.57
2024-05-09T17:35:05.823Z,10.20
2024-05-09T17:37:36.436Z,10.38
2024-05-09T17:40:06.824Z,10.73
2024-05-09T17:42:41.800Z,10.38
2024-05-09T17:45:09.544Z,10.38
2024-05-09T17:47:42.890Z,10.65
2024-05-09T17:50:15.046Z,9.90
2024-05-09T17:52:53.972Z,10.40
2024-05-09T17:55:21.768Z,10.52
2024-05-09T17:57:52.279Z,10.53
2024-05-09T18:00:28.958Z,10.68
2024-05-09T18:03:11.842Z,10.98
2024-05-09T18:05:40.996Z,10.93
2024-05-09T18:08:11.999Z,10.38
2024-05-09T18:10:41.062Z,10.82
2024-05-09T18:13:12.617Z,11.00
2024-05-09T18:15:40.799Z,11.32
2024-05-09T18:18:16.605Z,10.93
2024-05-09T18:20:46.360Z,11.88
2024-05-09T18:23:19.094Z,11.57
2024-05-09T18:25:47.878Z,11.90
2024-05-09T18:28:18.944Z,11.52
2024-05-09T18:30:47.101Z,12.30
2024-05-09T18:33:20.716Z,11.98
2024-05-09T18:35:48.992Z,11.43
2024-05-09T18:38:25.732Z,11.87
2024-05-09T18:40:53.732Z,11.75
2024-05-09T18:43:28.832Z,11.43
2024-05-09T18:46:04.300Z,13.10
2024-05-09T18:48:37.520Z,12.33
2024-05-09T18:52:12.592Z,12.93
2024-05-09T18:54:40.439Z,12.75
2024-05-09T18:57:10.891Z,12.30
2024-05-09T18:59:38.776Z,12.02
2024-05-09T19:02:09.531Z,11.90
2024-05-09T19:04:37.577Z,7.35
2024-05-09T19:08:16.257Z,11.68
2024-05-09T19:10:46.125Z,11.45
2024-05-09T19:13:17.268Z,11.38
2024-05-09T19:15:45.278Z,11.70
2024-05-09T19:18:17.275Z,11.48
2024-05-09T19:20:45.589Z,11.57
2024-05-09T19:23:18.778Z,11.73
2024-05-09T19:25:46.786Z,11.48
2024-05-09T19:28:17.321Z,11.85
2024-05-09T19:30:45.438Z,11.25
2024-05-09T19:33:15.895Z,11.25
2024-05-09T19:35:44.190Z,11.00
2024-05-09T19:38:18.101Z,11.32
2024-05-09T19:40:46.071Z,11.05
2024-05-09T19:43:16.771Z,10.70
2024-05-09T19:45:44.897Z,11.40
2024-05-09T19:48:15.442Z,12.68
2024-05-09T19:50:44.850Z,14.75
2024-05-09T19:53:19.343Z,16.23
2024-05-09T19:55:46.998Z,15.35
2024-05-09T19:58:17.354Z,13.70
2024-05-09T20:00:45.202Z,12.32
2024-05-09T20:03:16.712Z,12.70
2024-05-09T20:05:46.731Z,13.60
2024-05-09T20:08:20.418Z,13.68
2024-05-09T20:10:48.637Z,13.23
2024-05-09T20:13:19.066Z,12.80
2024-05-09T20:15:47.108Z,12.70
2024-05-09T20:18:18.093Z,13.10
2024-05-09T20:20:47.238Z,12.88
2024-05-09T20:23:21.307Z,12.98
2024-05-09T20:25:49.061Z,13.65
2024-05-09T20:28:19.691Z,13.90
2024-05-09T20:30:47.454Z,13.25
2024-05-09T20:33:17.953Z,13.50
2024-05-09T20:35:45.801Z,13.60
2024-05-09T20:38:16.383Z,13.88
2024-05-09T20:40:46.919Z,13.68
2024-05-09T20:43:17.491Z,13.48
2024-05-09T20:45:45.156Z,13.27
2024-05-09T20:48:15.649Z,13.50
2024-05-09T20:50:43.569Z,13.27
2024-05-09T20:53:15.336Z,13.07
2024-05-09T20:55:47.194Z,13.85
2024-05-09T20:58:17.577Z,14.68
2024-05-09T21:00:46.370Z,18.42
2024-05-09T21:03:18.188Z,19.42
2024-05-09T21:05:47.324Z,17.67
2024-05-09T21:08:18.364Z,18.27
2024-05-09T21:10:49.026Z,18.10
2024-05-09T21:13:20.007Z,16.27
2024-05-09T21:15:47.909Z,16.17
2024-05-09T21:18:18.539Z,14.77
2024-05-09T21:20:46.282Z,15.73
2024-05-09T21:23:16.719Z,14.98
2024-05-09T21:25:44.405Z,15.85
2024-05-09T21:28:17.731Z,17.40
2024-05-09T21:30:45.782Z,17.75
2024-05-09T21:33:16.576Z,17.30
2024-05-09T21:35:45.218Z,16.40
2024-05-09T21:38:16.372Z,16.30
2024-05-09T21:40:44.934Z,15.80
2024-05-09T21:43:18.709Z,15.93
2024-05-09T21:45:46.676Z,16.48
2024-05-09T21:48:17.159Z,15.77
2024-05-09T21:50:45.210Z,15.98
2024-05-09T21:53:16.036Z,16.10
2024-05-09T21:55:43.818Z,16.55
2024-05-09T21:58:17.736Z,15.93
2024-05-09T22:00:46.590Z,16.80
2024-05-09T22:03:17.910Z,17.20
2024-05-09T22:05:45.875Z,16.80
2024-05-09T22:08:16.203Z,16.77
2024-05-09T22:10:44.099Z,17.80
2024-05-09T22:13:15.988Z,18.33
2024-05-09T22:15:46.624Z,19.17
2024-05-09T22:18:17.444Z,18.60
2024-05-09T22:20:46.416Z,18.50
2024-05-09T22:23:18.223Z,18.90
2024-05-09T22:25:46.044Z,17.83
2024-05-09T22:28:18.193Z,18.10
2024-05-09T22:30:50.696Z,18.13
2024-05-09T22:33:21.290Z,18.25
2024-05-09T22:35:49.051Z,19.17
2024-05-09T22:38:19.334Z,18.27
2024-05-09T22:40:49.527Z,19.63
2024-05-09T22:43:25.255Z,18.83
2024-05-09T22:45:56.322Z,19.50
2024-05-09T22:48:26.962Z,19.52
2024-05-09T22:50:55.294Z,19.63
2024-05-09T22:53:26.607Z,18.80
2024-05-09T22:55:54.697Z,18.30
2024-05-09T22:58:26.055Z,18.80
2024-05-09T23:00:56.493Z,18.80
2024-05-09T23:03:27.019Z,19.30
2024-05-09T23:05:54.874Z,19.70
2024-05-09T23:08:25.647Z,18.50
2024-05-09T23:10:53.796Z,19.15
2024-05-09T23:13:24.868Z,19.20
2024-05-09T23:15:52.690Z,18.25
2024-05-09T23:18:25.799Z,18.40
2024-05-09T23:20:56.729Z,18.70
2024-05-09T23:23:26.993Z,18.83
2024-05-09T23:25:54.645Z,18.40
2024-05-09T23:28:25.124Z,18.98
2024-05-09T23:30:52.942Z,18.40
2024-05-09T23:33:26.137Z,18.80
2024-05-09T23:35:53.874Z,18.63
2024-05-09T23:38:24.893Z,18.25
2024-05-09T23:40:52.964Z,18.95
2024-05-09T23:43:23.746Z,18.25
2024-05-09T23:45:51.564Z,18.65
2024-05-09T23:48:22.250Z,18.20
2024-05-09T23:50:52.788Z,18.80
2024-05-09T23:53:23.258Z,18.58
2024-05-09T23:55:51.084Z,17.73
2024-05-09T23:58:21.725Z,18.35
